sensor_id;sensor_type;location;lat;lon;timestamp;P1;durP1;ratioP1;P2;durP2;ratioP2
11384;SDS011;5747;56.748;13.882;2023-08-12T00:01:52;6.00;;;4.30;;
11384;SDS011;5747;56.748;13.882;2023-08-12T00:04:21;7.37;;;4.00;;
11384;SDS011;5747;56.748;13.882;2023-08-12T00:06:49;5.90;;;4.37;;
11384;SDS011;5747;56.748;13.882;2023-08-12T00:09:17;5.03;;;4.30;;
11384;SDS011;5747;56.748;13.882;2023-08-12T00:11:45;5.00;;;3.93;;
11384;SDS011;5747;56.748;13.882;2023-08-12T00:14:14;4.70;;;3.97;;
11384;SDS011;5747;56.748;13.882;2023-08-12T00:16:42;8.87;;;4.17;;
11384;SDS011;5747;56.748;13.882;2023-08-12T00:19:10;7.70;;;4.10;;
11384;SDS011;5747;56.748;13.882;2023-08-12T00:21:40;6.10;;;4.23;;
11384;SDS011;5747;56.748;13.882;2023-08-12T00:24:08;5.07;;;4.13;;
11384;SDS011;5747;56.748;13.882;2023-08-12T00:26:36;5.67;;;3.93;;
11384;SDS011;5747;56.748;13.882;2023-08-12T00:29:04;5.77;;;4.40;;
11384;SDS011;5747;56.748;13.882;2023-08-12T00:31:32;7.80;;;4.73;;
11384;SDS011;5747;56.748;13.882;2023-08-12T00:34:01;5.97;;;4.40;;
11384;SDS011;5747;56.748;13.882;2023-08-12T00:36:29;6.03;;;4.17;;
11384;SDS011;5747;56.748;13.882;2023-08-12T00:38:58;5.57;;;4.50;;
11384;SDS011;5747;56.748;13.882;2023-08-12T00:41:26;5.03;;;4.30;;
11384;SDS011;5747;56.748;13.882;2023-08-12T00:43:54;7.37;;;4.40;;
11384;SDS011;5747;56.748;13.882;2023-08-12T00:46:23;8.03;;;4.80;;
11384;SDS011;5747;56.748;13.882;2023-08-12T00:48:52;5.43;;;4.90;;
11384;SDS011;5747;56.748;13.882;2023-08-12T00:51:20;5.40;;;4.60;;
11384;SDS011;5747;56.748;13.882;2023-08-12T00:53:49;13.43;;;5.90;;
11384;SDS011;5747;56.748;13.882;2023-08-12T00:56:20;5.57;;;5.07;;
11384;SDS011;5747;56.748;13.882;2023-08-12T00:58:49;7.40;;;5.37;;
11384;SDS011;5747;56.748;13.882;2023-08-12T01:01:18;9.17;;;5.00;;
11384;SDS011;5747;56.748;13.882;2023-08-12T01:03:47;7.40;;;5.70;;
11384;SDS011;5747;56.748;13.882;2023-08-12T01:06:15;7.53;;;5.20;;
11384;SDS011;5747;56.748;13.882;2023-08-12T01:08:43;7.03;;;4.97;;
11384;SDS011;5747;56.748;13.882;2023-08-12T01:11:14;11.17;;;6.03;;
11384;SDS011;5747;56.748;13.882;2023-08-12T01:13:52;8.13;;;5.73;;
11384;SDS011;5747;56.748;13.882;2023-08-12T01:16:26;8.43;;;5.00;;
11384;SDS011;5747;56.748;13.882;2023-08-12T01:19:00;5.63;;;5.13;;
11384;SDS011;5747;56.748;13.882;2023-08-12T01:21:29;6.27;;;5.03;;
11384;SDS011;5747;56.748;13.882;2023-08-12T01:24:00;6.80;;;5.67;;
11384;SDS011;5747;56.748;13.882;2023-08-12T01:26:28;7.83;;;5.37;;
11384;SDS011;5747;56.748;13.882;2023-08-12T01:28:56;9.23;;;7.37;;
11384;SDS011;5747;56.748;13.882;2023-08-12T01:31:26;10.37;;;7.80;;
11384;SDS011;5747;56.748;13.882;2023-08-12T01:34:02;8.47;;;6.27;;
11384;SDS011;5747;56.748;13.882;2023-08-12T01:36:39;8.80;;;6.90;;
11384;SDS011;5747;56.748;13.882;2023-08-12T01:39:14;9.60;;;6.50;;
11384;SDS011;5747;56.748;13.882;2023-08-12T01:41:45;9.07;;;6.50;;
11384;SDS011;5747;56.748;13.882;2023-08-12T01:44:13;7.20;;;6.47;;
11384;SDS011;5747;56.748;13.882;2023-08-12T01:46:42;6.87;;;6.17;;
11384;SDS011;5747;56.748;13.882;2023-08-12T01:49:11;7.43;;;5.50;;
11384;SDS011;5747;56.748;13.882;2023-08-12T01:51:39;9.40;;;6.10;;
11384;SDS011;5747;56.748;13.882;2023-08-12T01:54:07;6.70;;;5.70;;
11384;SDS011;5747;56.748;13.882;2023-08-12T01:56:36;7.43;;;5.50;;
11384;SDS011;5747;56.748;13.882;2023-08-12T01:59:05;9.93;;;6.10;;
11384;SDS011;5747;56.748;13.882;2023-08-12T02:01:33;7.93;;;5.10;;
11384;SDS011;5747;56.748;13.882;2023-08-12T02:04:01;6.20;;;5.40;;
11384;SDS011;5747;56.748;13.882;2023-08-12T02:06:30;7.23;;;5.57;;
11384;SDS011;5747;56.748;13.882;2023-08-12T02:08:58;7.43;;;5.53;;
11384;SDS011;5747;56.748;13.882;2023-08-12T02:11:27;6.63;;;5.30;;
11384;SDS011;5747;56.748;13.882;2023-08-12T02:13:56;6.60;;;5.90;;
11384;SDS011;5747;56.748;13.882;2023-08-12T02:16:24;9.97;;;6.57;;
11384;SDS011;5747;56.748;13.882;2023-08-12T02:18:52;8.03;;;5.50;;
11384;SDS011;5747;56.748;13.882;2023-08-12T02:21:20;10.70;;;5.57;;
11384;SDS011;5747;56.748;13.882;2023-08-12T02:23:49;6.00;;;5.30;;
11384;SDS011;5747;56.748;13.882;2023-08-12T02:26:17;7.63;;;5.33;;
11384;SDS011;5747;56.748;13.882;2023-08-12T02:28:47;8.43;;;5.73;;
11384;SDS011;5747;56.748;13.882;2023-08-12T02:31:16;7.70;;;5.53;;
11384;SDS011;5747;56.748;13.882;2023-08-12T02:33:44;7.23;;;5.07;;
11384;SDS011;5747;56.748;13.882;2023-08-12T02:36:12;10.43;;;4.63;;
11384;SDS011;5747;56.748;13.882;2023-08-12T02:38:41;5.37;;;4.73;;
11384;SDS011;5747;56.748;13.882;2023-08-12T02:41:09;8.47;;;5.00;;
11384;SDS011;5747;56.748;13.882;2023-08-12T02:43:37;8.93;;;5.10;;
11384;SDS011;5747;56.748;13.882;2023-08-12T02:46:05;8.53;;;5.20;;
11384;SDS011;5747;56.748;13.882;2023-08-12T02:48:35;7.30;;;5.07;;
11384;SDS011;5747;56.748;13.882;2023-08-12T02:51:03;8.03;;;5.43;;
11384;SDS011;5747;56.748;13.882;2023-08-12T02:53:31;10.37;;;5.30;;
11384;SDS011;5747;56.748;13.882;2023-08-12T02:55:59;8.17;;;5.30;;
11384;SDS011;5747;56.748;13.882;2023-08-12T02:58:28;7.10;;;5.10;;
11384;SDS011;5747;56.748;13.882;2023-08-12T03:00:56;8.23;;;5.57;;
11384;SDS011;5747;56.748;13.882;2023-08-12T03:03:24;7.40;;;5.50;;
11384;SDS011;5747;56.748;13.882;2023-08-12T03:05:54;7.73;;;5.17;;
11384;SDS011;5747;56.748;13.882;2023-08-12T03:08:22;8.33;;;5.07;;
11384;SDS011;5747;56.748;13.882;2023-08-12T03:10:57;5.97;;;5.03;;
11384;SDS011;5747;56.748;13.882;2023-08-12T03:13:27;7.40;;;5.30;;
11384;SDS011;5747;56.748;13.882;2023-08-12T03:15:56;6.97;;;5.30;;
11384;SDS011;5747;56.748;13.882;2023-08-12T03:18:25;6.70;;;5.80;;
11384;SDS011;5747;56.748;13.882;2023-08-12T03:20:55;8.53;;;5.67;;
11384;SDS011;5747;56.748;13.882;2023-08-12T03:23:24;9.23;;;5.70;;
11384;SDS011;5747;56.748;13.882;2023-08-12T03:25:53;7.67;;;5.30;;
11384;SDS011;5747;56.748;13.882;2023-08-12T03:28:22;7.40;;;5.50;;
11384;SDS011;5747;56.748;13.882;2023-08-12T03:30:50;6.67;;;5.40;;
11384;SDS011;5747;56.748;13.882;2023-08-12T03:33:21;8.57;;;6.20;;
11384;SDS011;5747;56.748;13.882;2023-08-12T03:35:50;7.37;;;5.30;;
11384;SDS011;5747;56.748;13.882;2023-08-12T03:38:20;6.43;;;5.43;;
11384;SDS011;5747;56.748;13.882;2023-08-12T03:40:49;5.83;;;4.93;;
11384;SDS011;5747;56.748;13.882;2023-08-12T03:43:19;8.27;;;4.63;;
11384;SDS011;5747;56.748;13.882;2023-08-12T03:45:48;7.90;;;4.97;;
11384;SDS011;5747;56.748;13.882;2023-08-12T03:48:18;6.43;;;4.93;;
11384;SDS011;5747;56.748;13.882;2023-08-12T03:50:47;7.30;;;5.23;;
11384;SDS011;5747;56.748;13.882;2023-08-12T03:53:15;5.63;;;5.00;;
11384;SDS011;5747;56.748;13.882;2023-08-12T03:55:46;5.97;;;4.47;;
11384;SDS011;5747;56.748;13.882;2023-08-12T03:58:16;5.60;;;4.60;;
11384;SDS011;5747;56.748;13.882;2023-08-12T04:00:46;6.97;;;4.73;;
11384;SDS011;5747;56.748;13.882;2023-08-12T04:03:15;5.13;;;4.60;;
11384;SDS011;5747;56.748;13.882;2023-08-12T04:05:47;7.37;;;4.93;;
11384;SDS011;5747;56.748;13.882;2023-08-12T04:08:16;5.27;;;4.77;;
11384;SDS011;5747;56.748;13.882;2023-08-12T04:10:46;5.77;;;4.13;;
11384;SDS011;5747;56.748;13.882;2023-08-12T04:13:15;4.73;;;4.20;;
11384;SDS011;5747;56.748;13.882;2023-08-12T04:15:47;4.30;;;3.67;;
11384;SDS011;5747;56.748;13.882;2023-08-12T04:18:16;9.03;;;4.00;;
11384;SDS011;5747;56.748;13.882;2023-08-12T04:20:44;4.63;;;3.90;;
11384;SDS011;5747;56.748;13.882;2023-08-12T04:23:13;7.57;;;4.20;;
11384;SDS011;5747;56.748;13.882;2023-08-12T04:25:42;4.90;;;3.73;;
11384;SDS011;5747;56.748;13.882;2023-08-12T04:28:13;8.60;;;3.90;;
11384;SDS011;5747;56.748;13.882;2023-08-12T04:30:42;3.90;;;3.47;;
11384;SDS011;5747;56.748;13.882;2023-08-12T04:33:11;3.93;;;3.53;;
11384;SDS011;5747;56.748;13.882;2023-08-12T04:35:40;5.23;;;3.30;;
11384;SDS011;5747;56.748;13.882;2023-08-12T04:38:09;4.13;;;3.10;;
11384;SDS011;5747;56.748;13.882;2023-08-12T04:40:39;3.63;;;3.10;;
11384;SDS011;5747;56.748;13.882;2023-08-12T04:43:08;4.83;;;2.97;;
11384;SDS011;5747;56.748;13.882;2023-08-12T04:45:38;3.83;;;2.83;;
11384;SDS011;5747;56.748;13.882;2023-08-12T04:48:06;3.77;;;2.87;;
11384;SDS011;5747;56.748;13.882;2023-08-12T04:50:37;4.20;;;2.87;;
11384;SDS011;5747;56.748;13.882;2023-08-12T04:53:05;6.00;;;2.93;;
11384;SDS011;5747;56.748;13.882;2023-08-12T04:55:34;2.63;;;2.40;;
11384;SDS011;5747;56.748;13.882;2023-08-12T04:58:02;5.17;;;2.40;;
11384;SDS011;5747;56.748;13.882;2023-08-12T05:00:31;2.57;;;2.37;;
11384;SDS011;5747;56.748;13.882;2023-08-12T05:03:01;8.00;;;2.73;;
11384;SDS011;5747;56.748;13.882;2023-08-12T05:05:29;4.40;;;2.27;;
11384;SDS011;5747;56.748;13.882;2023-08-12T05:07:57;4.90;;;2.43;;
11384;SDS011;5747;56.748;13.882;2023-08-12T05:10:26;2.87;;;2.00;;
11384;SDS011;5747;56.748;13.882;2023-08-12T05:12:55;4.83;;;2.13;;
11384;SDS011;5747;56.748;13.882;2023-08-12T05:15:25;2.30;;;2.10;;
11384;SDS011;5747;56.748;13.882;2023-08-12T05:17:54;2.10;;;1.90;;
11384;SDS011;5747;56.748;13.882;2023-08-12T05:20:23;3.27;;;2.20;;
11384;SDS011;5747;56.748;13.882;2023-08-12T05:22:51;5.17;;;2.10;;
11384;SDS011;5747;56.748;13.882;2023-08-12T05:25:19;2.20;;;2.00;;
11384;SDS011;5747;56.748;13.882;2023-08-12T05:27:48;2.00;;;1.80;;
11384;SDS011;5747;56.748;13.882;2023-08-12T05:30:16;2.03;;;1.73;;
11384;SDS011;5747;56.748;13.882;2023-08-12T05:32:44;1.80;;;1.60;;
11384;SDS011;5747;56.748;13.882;2023-08-12T05:35:13;2.40;;;2.20;;
11384;SDS011;5747;56.748;13.882;2023-08-12T05:37:42;3.93;;;1.93;;
11384;SDS011;5747;56.748;13.882;2023-08-12T05:40:10;3.13;;;1.80;;
11384;SDS011;5747;56.748;13.882;2023-08-12T05:42:39;3.10;;;1.93;;
11384;SDS011;5747;56.748;13.882;2023-08-12T05:45:07;1.77;;;1.67;;
11384;SDS011;5747;56.748;13.882;2023-08-12T05:47:37;2.93;;;1.80;;
11384;SDS011;5747;56.748;13.882;2023-08-12T05:50:05;1.73;;;1.53;;
11384;SDS011;5747;56.748;13.882;2023-08-12T05:52:34;1.90;;;1.77;;
11384;SDS011;5747;56.748;13.882;2023-08-12T05:55:04;1.90;;;1.70;;
11384;SDS011;5747;56.748;13.882;2023-08-12T05:57:33;2.97;;;2.00;;
11384;SDS011;5747;56.748;13.882;2023-08-12T06:00:01;2.43;;;1.87;;
11384;SDS011;5747;56.748;13.882;2023-08-12T06:02:36;5.03;;;1.90;;
11384;SDS011;5747;56.748;13.882;2023-08-12T06:05:05;4.17;;;1.87;;
11384;SDS011;5747;56.748;13.882;2023-08-12T06:07:34;2.33;;;1.83;;
11384;SDS011;5747;56.748;13.882;2023-08-12T06:10:04;4.73;;;1.90;;
11384;SDS011;5747;56.748;13.882;2023-08-12T06:12:33;2.10;;;1.90;;
11384;SDS011;5747;56.748;13.882;2023-08-12T06:15:01;1.70;;;1.60;;
11384;SDS011;5747;56.748;13.882;2023-08-12T06:17:29;2.80;;;1.53;;
11384;SDS011;5747;56.748;13.882;2023-08-12T06:19:57;3.10;;;1.80;;
11384;SDS011;5747;56.748;13.882;2023-08-12T06:22:26;1.87;;;1.50;;
11384;SDS011;5747;56.748;13.882;2023-08-12T06:24:54;1.67;;;1.57;;
11384;SDS011;5747;56.748;13.882;2023-08-12T06:27:24;1.77;;;1.40;;
11384;SDS011;5747;56.748;13.882;2023-08-12T06:29:52;2.33;;;1.50;;
11384;SDS011;5747;56.748;13.882;2023-08-12T06:32:20;2.60;;;1.70;;
11384;SDS011;5747;56.748;13.882;2023-08-12T06:34:48;4.03;;;1.50;;
11384;SDS011;5747;56.748;13.882;2023-08-12T06:37:16;1.97;;;1.53;;
11384;SDS011;5747;56.748;13.882;2023-08-12T06:39:44;2.57;;;1.87;;
11384;SDS011;5747;56.748;13.882;2023-08-12T06:42:12;7.27;;;1.80;;
11384;SDS011;5747;56.748;13.882;2023-08-12T06:44:42;2.13;;;1.30;;
11384;SDS011;5747;56.748;13.882;2023-08-12T06:47:10;2.40;;;1.40;;
11384;SDS011;5747;56.748;13.882;2023-08-12T06:49:38;3.60;;;1.80;;
11384;SDS011;5747;56.748;13.882;2023-08-12T06:52:06;1.70;;;1.40;;
11384;SDS011;5747;56.748;13.882;2023-08-12T06:54:34;1.60;;;1.47;;
11384;SDS011;5747;56.748;13.882;2023-08-12T06:57:03;2.90;;;1.40;;
11384;SDS011;5747;56.748;13.882;2023-08-12T06:59:31;4.33;;;1.60;;
11384;SDS011;5747;56.748;13.882;2023-08-12T07:02:00;2.17;;;1.50;;
11384;SDS011;5747;56.748;13.882;2023-08-12T07:04:29;1.13;;;1.13;;
11384;SDS011;5747;56.748;13.882;2023-08-12T07:06:57;2.40;;;1.50;;
11384;SDS011;5747;56.748;13.882;2023-08-12T07:09:26;2.27;;;1.43;;
11384;SDS011;5747;56.748;13.882;2023-08-12T07:11:54;2.40;;;1.40;;
11384;SDS011;5747;56.748;13.882;2023-08-12T07:14:22;2.47;;;1.50;;
11384;SDS011;5747;56.748;13.882;2023-08-12T07:16:50;1.63;;;1.50;;
11384;SDS011;5747;56.748;13.882;2023-08-12T07:19:20;3.33;;;1.53;;
11384;SDS011;5747;56.748;13.882;2023-08-12T07:21:48;2.53;;;1.40;;
11384;SDS011;5747;56.748;13.882;2023-08-12T07:24:16;2.97;;;1.50;;
11384;SDS011;5747;56.748;13.882;2023-08-12T07:26:44;1.50;;;1.40;;
11384;SDS011;5747;56.748;13.882;2023-08-12T07:29:13;1.10;;;1.10;;
11384;SDS011;5747;56.748;13.882;2023-08-12T07:31:42;1.60;;;1.50;;
11384;SDS011;5747;56.748;13.882;2023-08-12T07:34:10;2.77;;;1.47;;
11384;SDS011;5747;56.748;13.882;2023-08-12T07:36:40;2.10;;;1.63;;
11384;SDS011;5747;56.748;13.882;2023-08-12T07:39:09;1.50;;;1.40;;
11384;SDS011;5747;56.748;13.882;2023-08-12T07:41:37;1.87;;;1.30;;
11384;SDS011;5747;56.748;13.882;2023-08-12T07:44:05;1.60;;;1.40;;
11384;SDS011;5747;56.748;13.882;2023-08-12T07:46:33;1.43;;;1.23;;
11384;SDS011;5747;56.748;13.882;2023-08-12T07:49:01;1.53;;;1.30;;
11384;SDS011;5747;56.748;13.882;2023-08-12T07:51:29;1.50;;;1.37;;
11384;SDS011;5747;56.748;13.882;2023-08-12T07:53:59;2.70;;;1.20;;
11384;SDS011;5747;56.748;13.882;2023-08-12T07:56:27;1.73;;;1.20;;
11384;SDS011;5747;56.748;13.882;2023-08-12T07:58:55;1.43;;;1.13;;
11384;SDS011;5747;56.748;13.882;2023-08-12T08:01:24;1.50;;;1.10;;
11384;SDS011;5747;56.748;13.882;2023-08-12T08:03:52;2.30;;;1.47;;
11384;SDS011;5747;56.748;13.882;2023-08-12T08:06:20;2.20;;;1.10;;
11384;SDS011;5747;56.748;13.882;2023-08-12T08:08:49;1.30;;;1.20;;
11384;SDS011;5747;56.748;13.882;2023-08-12T08:11:19;1.00;;;1.00;;
11384;SDS011;5747;56.748;13.882;2023-08-12T08:13:47;1.87;;;1.30;;
11384;SDS011;5747;56.748;13.882;2023-08-12T08:16:15;2.80;;;1.20;;
11384;SDS011;5747;56.748;13.882;2023-08-12T08:18:44;6.37;;;1.40;;
11384;SDS011;5747;56.748;13.882;2023-08-12T08:21:12;2.93;;;1.30;;
11384;SDS011;5747;56.748;13.882;2023-08-12T08:23:40;1.10;;;1.10;;
11384;SDS011;5747;56.748;13.882;2023-08-12T08:26:09;4.13;;;1.30;;
11384;SDS011;5747;56.748;13.882;2023-08-12T08:28:38;1.40;;;1.20;;
11384;SDS011;5747;56.748;13.882;2023-08-12T08:31:06;1.57;;;1.30;;
11384;SDS011;5747;56.748;13.882;2023-08-12T08:33:35;1.27;;;1.17;;
11384;SDS011;5747;56.748;13.882;2023-08-12T08:36:03;2.70;;;1.10;;
11384;SDS011;5747;56.748;13.882;2023-08-12T08:38:32;3.40;;;1.27;;
11384;SDS011;5747;56.748;13.882;2023-08-12T08:41:00;1.13;;;1.03;;
11384;SDS011;5747;56.748;13.882;2023-08-12T08:43:28;1.70;;;1.37;;
11384;SDS011;5747;56.748;13.882;2023-08-12T08:45:58;2.90;;;1.20;;
11384;SDS011;5747;56.748;13.882;2023-08-12T08:48:28;2.43;;;1.27;;
11384;SDS011;5747;56.748;13.882;2023-08-12T08:50:56;1.30;;;1.20;;
11384;SDS011;5747;56.748;13.882;2023-08-12T08:53:25;1.33;;;1.20;;
11384;SDS011;5747;56.748;13.882;2023-08-12T08:55:53;2.47;;;1.27;;
11384;SDS011;5747;56.748;13.882;2023-08-12T08:58:27;1.57;;;1.37;;
11384;SDS011;5747;56.748;13.882;2023-08-12T09:00:55;2.57;;;1.20;;
11384;SDS011;5747;56.748;13.882;2023-08-12T09:03:24;1.93;;;1.47;;
11384;SDS011;5747;56.748;13.882;2023-08-12T09:05:53;1.53;;;1.43;;
11384;SDS011;5747;56.748;13.882;2023-08-12T09:08:23;1.77;;;1.20;;
11384;SDS011;5747;56.748;13.882;2023-08-12T09:10:53;1.57;;;1.43;;
11384;SDS011;5747;56.748;13.882;2023-08-12T09:13:22;3.73;;;1.57;;
11384;SDS011;5747;56.748;13.882;2023-08-12T09:15:50;3.03;;;1.27;;
11384;SDS011;5747;56.748;13.882;2023-08-12T09:18:18;1.50;;;1.40;;
11384;SDS011;5747;56.748;13.882;2023-08-12T09:20:51;6.77;;;1.67;;
11384;SDS011;5747;56.748;13.882;2023-08-12T09:23:21;4.27;;;1.60;;
11384;SDS011;5747;56.748;13.882;2023-08-12T09:25:49;3.20;;;1.23;;
11384;SDS011;5747;56.748;13.882;2023-08-12T09:28:18;5.40;;;1.50;;
11384;SDS011;5747;56.748;13.882;2023-08-12T09:30:50;2.90;;;1.50;;
11384;SDS011;5747;56.748;13.882;2023-08-12T09:33:25;2.43;;;1.40;;
11384;SDS011;5747;56.748;13.882;2023-08-12T09:35:55;2.27;;;1.27;;
11384;SDS011;5747;56.748;13.882;2023-08-12T09:38:26;3.27;;;1.30;;
11384;SDS011;5747;56.748;13.882;2023-08-12T09:40:54;1.77;;;1.40;;
11384;SDS011;5747;56.748;13.882;2023-08-12T09:43:23;2.37;;;1.40;;
11384;SDS011;5747;56.748;13.882;2023-08-12T09:45:55;2.47;;;1.57;;
11384;SDS011;5747;56.748;13.882;2023-08-12T09:48:24;1.50;;;1.40;;
11384;SDS011;5747;56.748;13.882;2023-08-12T09:50:53;1.30;;;1.17;;
11384;SDS011;5747;56.748;13.882;2023-08-12T09:53:23;1.63;;;1.30;;
11384;SDS011;5747;56.748;13.882;2023-08-12T09:55:51;1.13;;;1.13;;
11384;SDS011;5747;56.748;13.882;2023-08-12T09:58:20;3.83;;;1.30;;
11384;SDS011;5747;56.748;13.882;2023-08-12T10:00:51;3.43;;;1.50;;
11384;SDS011;5747;56.748;13.882;2023-08-12T10:03:20;2.17;;;1.20;;
11384;SDS011;5747;56.748;13.882;2023-08-12T10:05:49;2.77;;;1.47;;
11384;SDS011;5747;56.748;13.882;2023-08-12T10:08:18;1.50;;;1.40;;
11384;SDS011;5747;56.748;13.882;2023-08-12T10:10:48;1.60;;;1.50;;
11384;SDS011;5747;56.748;13.882;2023-08-12T10:13:36;2.27;;;1.37;;
11384;SDS011;5747;56.748;13.882;2023-08-12T10:16:05;2.90;;;1.30;;
11384;SDS011;5747;56.748;13.882;2023-08-12T10:18:33;1.60;;;1.50;;
11384;SDS011;5747;56.748;13.882;2023-08-12T10:21:03;1.60;;;1.50;;
11384;SDS011;5747;56.748;13.882;2023-08-12T10:23:33;1.30;;;1.20;;
11384;SDS011;5747;56.748;13.882;2023-08-12T10:26:02;5.30;;;2.40;;
11384;SDS011;5747;56.748;13.882;2023-08-12T10:28:34;2.47;;;1.63;;
11384;SDS011;5747;56.748;13.882;2023-08-12T10:31:04;1.50;;;1.40;;
11384;SDS011;5747;56.748;13.882;2023-08-12T10:33:35;2.67;;;1.50;;
11384;SDS011;5747;56.748;13.882;2023-08-12T10:36:04;2.57;;;1.57;;
11384;SDS011;5747;56.748;13.882;2023-08-12T10:38:33;1.60;;;1.50;;
11384;SDS011;5747;56.748;13.882;2023-08-12T10:41:19;2.07;;;1.43;;
11384;SDS011;5747;56.748;13.882;2023-08-12T10:43:51;2.17;;;1.70;;
11384;SDS011;5747;56.748;13.882;2023-08-12T10:46:26;2.97;;;1.60;;
11384;SDS011;5747;56.748;13.882;2023-08-12T10:49:02;2.60;;;1.60;;
11384;SDS011;5747;56.748;13.882;2023-08-12T10:51:42;1.70;;;1.60;;
11384;SDS011;5747;56.748;13.882;2023-08-12T10:54:16;2.05;;;1.50;;
11384;SDS011;5747;56.748;13.882;2023-08-12T10:57:05;3.60;;;1.83;;
11384;SDS011;5747;56.748;13.882;2023-08-12T10:59:47;4.35;;;2.00;;
11384;SDS011;5747;56.748;13.882;2023-08-12T11:02:17;3.47;;;1.90;;
11384;SDS011;5747;56.748;13.882;2023-08-12T11:04:48;1.98;;;1.70;;
11384;SDS011;5747;56.748;13.882;2023-08-12T11:07:17;2.25;;;1.80;;
11384;SDS011;5747;56.748;13.882;2023-08-12T11:09:48;2.55;;;1.80;;
11384;SDS011;5747;56.748;13.882;2023-08-12T11:12:28;2.53;;;2.03;;
11384;SDS011;5747;56.748;13.882;2023-08-12T11:17:49;2.90;;;1.80;;
11384;SDS011;5747;56.748;13.882;2023-08-12T11:20:18;2.05;;;1.70;;
11384;SDS011;5747;56.748;13.882;2023-08-12T11:22:46;2.13;;;1.88;;
11384;SDS011;5747;56.748;13.882;2023-08-12T11:25:14;2.08;;;1.88;;
11384;SDS011;5747;56.748;13.882;2023-08-12T11:27:47;5.28;;;1.50;;
11384;SDS011;5747;56.748;13.882;2023-08-12T11:30:16;3.20;;;1.52;;
11384;SDS011;5747;56.748;13.882;2023-08-12T11:32:46;2.40;;;1.90;;
11384;SDS011;5747;56.748;13.882;2023-08-12T11:35:15;3.28;;;1.52;;
11384;SDS011;5747;56.748;13.882;2023-08-12T11:37:44;4.53;;;1.90;;
11384;SDS011;5747;56.748;13.882;2023-08-12T11:40:14;4.50;;;1.77;;
11384;SDS011;5747;56.748;13.882;2023-08-12T11:42:44;2.03;;;1.65;;
11384;SDS011;5747;56.748;13.882;2023-08-12T11:45:17;1.77;;;1.67;;
11384;SDS011;5747;56.748;13.882;2023-08-12T11:47:46;3.47;;;1.55;;
11384;SDS011;5747;56.748;13.882;2023-08-12T11:50:20;1.85;;;1.65;;
11384;SDS011;5747;56.748;13.882;2023-08-12T11:52:49;7.38;;;1.80;;
11384;SDS011;5747;56.748;13.882;2023-08-12T11:55:18;1.98;;;1.77;;
11384;SDS011;5747;56.748;13.882;2023-08-12T11:57:47;2.90;;;1.75;;
11384;SDS011;5747;56.748;13.882;2023-08-12T12:00:16;2.15;;;1.85;;
11384;SDS011;5747;56.748;13.882;2023-08-12T12:02:48;2.07;;;1.70;;
11384;SDS011;5747;56.748;13.882;2023-08-12T12:05:18;1.90;;;1.80;;
11384;SDS011;5747;56.748;13.882;2023-08-12T12:07:50;1.73;;;1.63;;
11384;SDS011;5747;56.748;13.882;2023-08-12T12:10:19;2.50;;;2.05;;
11384;SDS011;5747;56.748;13.882;2023-08-12T12:12:49;1.90;;;1.80;;
11384;SDS011;5747;56.748;13.882;2023-08-12T12:15:18;1.95;;;1.77;;
11384;SDS011;5747;56.748;13.882;2023-08-12T12:17:46;2.60;;;1.70;;
11384;SDS011;5747;56.748;13.882;2023-08-12T12:20:16;4.63;;;1.73;;
11384;SDS011;5747;56.748;13.882;2023-08-12T12:22:45;1.80;;;1.70;;
11384;SDS011;5747;56.748;13.882;2023-08-12T12:25:15;3.77;;;1.83;;
11384;SDS011;5747;56.748;13.882;2023-08-12T12:27:45;2.20;;;1.90;;
11384;SDS011;5747;56.748;13.882;2023-08-12T12:30:14;3.10;;;1.60;;
11384;SDS011;5747;56.748;13.882;2023-08-12T12:32:45;2.00;;;1.90;;
11384;SDS011;5747;56.748;13.882;2023-08-12T12:35:13;2.30;;;1.70;;
11384;SDS011;5747;56.748;13.882;2023-08-12T12:37:42;2.77;;;1.70;;
11384;SDS011;5747;56.748;13.882;2023-08-12T12:40:10;3.80;;;1.80;;
11384;SDS011;5747;56.748;13.882;2023-08-12T12:42:39;1.93;;;1.73;;
11384;SDS011;5747;56.748;13.882;2023-08-12T12:45:07;2.10;;;1.90;;
11384;SDS011;5747;56.748;13.882;2023-08-12T12:47:36;2.23;;;1.70;;
11384;SDS011;5747;56.748;13.882;2023-08-12T12:50:07;3.07;;;1.97;;
11384;SDS011;5747;56.748;13.882;2023-08-12T12:52:35;2.87;;;1.93;;
11384;SDS011;5747;56.748;13.882;2023-08-12T12:55:03;2.03;;;1.83;;
11384;SDS011;5747;56.748;13.882;2023-08-12T12:57:32;1.90;;;1.60;;
11384;SDS011;5747;56.748;13.882;2023-08-12T13:00:00;1.77;;;1.67;;
11384;SDS011;5747;56.748;13.882;2023-08-12T13:02:30;1.83;;;1.73;;
11384;SDS011;5747;56.748;13.882;2023-08-12T13:04:59;1.83;;;1.60;;
11384;SDS011;5747;56.748;13.882;2023-08-12T13:07:28;3.07;;;1.97;;
11384;SDS011;5747;56.748;13.882;2023-08-12T13:09:56;4.80;;;1.88;;
11384;SDS011;5747;56.748;13.882;2023-08-12T13:12:24;2.45;;;1.90;;
11384;SDS011;5747;56.748;13.882;2023-08-12T13:14:52;3.65;;;1.60;;
11384;SDS011;5747;56.748;13.882;2023-08-12T13:17:21;8.45;;;2.55;;
11384;SDS011;5747;56.748;13.882;2023-08-12T13:19:49;6.43;;;2.53;;
11384;SDS011;5747;56.748;13.882;2023-08-12T13:22:17;18.85;;;6.72;;
11384;SDS011;5747;56.748;13.882;2023-08-12T13:24:46;4.43;;;2.20;;
11384;SDS011;5747;56.748;13.882;2023-08-12T13:27:15;3.37;;;1.87;;
11384;SDS011;5747;56.748;13.882;2023-08-12T13:29:43;6.27;;;2.67;;
11384;SDS011;5747;56.748;13.882;2023-08-12T13:32:11;1.97;;;1.80;;
11384;SDS011;5747;56.748;13.882;2023-08-12T13:34:40;4.80;;;2.10;;
11384;SDS011;5747;56.748;13.882;2023-08-12T13:37:09;2.53;;;1.90;;
11384;SDS011;5747;56.748;13.882;2023-08-12T13:39:37;3.23;;;2.07;;
11384;SDS011;5747;56.748;13.882;2023-08-12T13:42:07;4.53;;;2.10;;
11384;SDS011;5747;56.748;13.882;2023-08-12T13:44:35;2.00;;;1.80;;
11384;SDS011;5747;56.748;13.882;2023-08-12T13:47:03;47.77;;;12.37;;
11384;SDS011;5747;56.748;13.882;2023-08-12T13:49:32;2.73;;;2.00;;
11384;SDS011;5747;56.748;13.882;2023-08-12T13:52:00;3.53;;;1.70;;
11384;SDS011;5747;56.748;13.882;2023-08-12T13:54:28;2.87;;;1.73;;
11384;SDS011;5747;56.748;13.882;2023-08-12T13:56:56;1.80;;;1.70;;
11384;SDS011;5747;56.748;13.882;2023-08-12T13:59:25;7.93;;;2.00;;
11384;SDS011;5747;56.748;13.882;2023-08-12T14:01:53;2.20;;;2.00;;
11384;SDS011;5747;56.748;13.882;2023-08-12T14:04:21;4.30;;;2.07;;
11384;SDS011;5747;56.748;13.882;2023-08-12T14:06:50;3.33;;;1.90;;
11384;SDS011;5747;56.748;13.882;2023-08-12T14:09:18;3.13;;;2.20;;
11384;SDS011;5747;56.748;13.882;2023-08-12T14:11:46;2.87;;;1.90;;
11384;SDS011;5747;56.748;13.882;2023-08-12T14:14:14;4.03;;;2.27;;
11384;SDS011;5747;56.748;13.882;2023-08-12T14:16:44;2.13;;;1.90;;
11384;SDS011;5747;56.748;13.882;2023-08-12T14:19:12;2.67;;;2.10;;
11384;SDS011;5747;56.748;13.882;2023-08-12T14:21:43;3.53;;;1.90;;
11384;SDS011;5747;56.748;13.882;2023-08-12T14:24:11;2.33;;;2.00;;
11384;SDS011;5747;56.748;13.882;2023-08-12T14:26:39;2.03;;;1.90;;
11384;SDS011;5747;56.748;13.882;2023-08-12T14:29:07;2.80;;;2.23;;
11384;SDS011;5747;56.748;13.882;2023-08-12T14:31:35;3.47;;;2.10;;
11384;SDS011;5747;56.748;13.882;2023-08-12T14:34:05;4.33;;;2.20;;
11384;SDS011;5747;56.748;13.882;2023-08-12T14:36:33;4.30;;;2.33;;
11384;SDS011;5747;56.748;13.882;2023-08-12T14:39:02;2.43;;;1.80;;
11384;SDS011;5747;56.748;13.882;2023-08-12T14:41:30;3.90;;;2.27;;
11384;SDS011;5747;56.748;13.882;2023-08-12T14:43:58;5.27;;;2.00;;
11384;SDS011;5747;56.748;13.882;2023-08-12T14:46:26;2.87;;;2.50;;
11384;SDS011;5747;56.748;13.882;2023-08-12T14:48:55;5.37;;;2.43;;
11384;SDS011;5747;56.748;13.882;2023-08-12T14:51:24;3.03;;;2.30;;
11384;SDS011;5747;56.748;13.882;2023-08-12T14:53:52;3.83;;;2.30;;
11384;SDS011;5747;56.748;13.882;2023-08-12T14:56:21;5.13;;;2.80;;
11384;SDS011;5747;56.748;13.882;2023-08-12T14:58:49;2.20;;;2.00;;
11384;SDS011;5747;56.748;13.882;2023-08-12T15:01:17;2.20;;;2.00;;
11384;SDS011;5747;56.748;13.882;2023-08-12T15:03:45;3.67;;;1.90;;